Time;durP1;ratioP1;P1;durP2;ratioP2;P2;SDS_P1;SDS_P2;PMS_P1;PMS_P2;Temp;Humidity;BMP_temperature;BMP_pressure;BME280_temperature;BME280_humidity;BME280_pressure;Samples;Min_cycle;Max_cycle;Signal;HPM_P1;HPM_P2
2022/09/25 00:00:57;;;;;;;11.85;2.90;;;9.40;99.90;;;;;;5072793;28;20056;-59
2022/09/25 00:03:27;;;;;;;9.48;2.85;;;9.20;99.90;;;;;;5073425;28;20493;-60
2022/09/25 00:06:03;;;;;;;11.18;2.60;;;9.20;99.90;;;;;;5073616;28;20101;-59
2022/09/25 00:08:30;;;;;;;10.98;2.97;;;9.10;99.90;;;;;;5073940;28;20032;-59
2022/09/25 00:10:57;;;;;;;12.45;2.72;;;9.10;99.90;;;;;;5073155;28;20041;-60
2022/09/25 00:13:23;;;;;;;15.50;2.72;;;9.40;99.90;;;;;;5072260;28;20037;-59
2022/09/25 00:15:55;;;;;;;13.43;2.60;;;8.70;99.90;;;;;;5072312;28;20045;-59
2022/09/25 00:21:13;;;;;;;14.30;2.95;;;9.60;99.90;;;;;;5073552;28;20122;-59
2022/09/25 00:23:43;;;;;;;9.20;2.70;;;8.90;99.90;;;;;;5073346;28;20132;-59
2022/09/25 00:26:11;;;;;;;13.75;3.15;;;9.00;99.90;;;;;;5073182;28;20435;-59
2022/09/25 00:28:39;;;;;;;10.25;2.70;;;8.90;99.90;;;;;;5073550;28;20040;-59
2022/09/25 00:31:06;;;;;;;10.15;2.53;;;8.90;99.90;;;;;;5073315;28;20041;-59
2022/09/25 00:33:35;;;;;;;14.10;3.28;;;9.10;99.90;;;;;;5073226;28;20549;-59
2022/09/25 00:36:07;;;;;;;10.88;2.92;;;8.80;99.90;;;;;;5071910;28;20048;-59
2022/09/25 00:38:34;;;;;;;13.10;3.20;;;8.90;99.90;;;;;;5073084;28;20032;-59
2022/09/25 00:41:01;;;;;;;6.43;2.60;;;8.50;99.90;;;;;;5072207;28;20100;-59
2022/09/25 00:43:45;;;;;;;8.32;2.78;;;8.80;99.90;;;;;;5073123;28;20072;-59
2022/09/25 00:46:21;;;;;;;13.65;3.22;;;8.80;99.90;;;;;;5073092;28;20484;-59
2022/09/25 00:49:11;;;;;;;10.70;3.00;;;8.70;99.90;;;;;;5073223;28;20044;-59
2022/09/25 00:51:49;;;;;;;13.05;3.10;;;8.70;99.90;;;;;;5073332;28;20049;-59
2022/09/25 00:54:19;;;;;;;9.63;2.80;;;8.80;99.90;;;;;;5073242;28;20055;-58
2022/09/25 00:56:48;;;;;;;11.32;3.10;;;8.70;99.90;;;;;;5072978;28;20051;-59
2022/09/25 00:59:18;;;;;;;12.20;3.20;;;8.70;99.90;;;;;;5073127;28;20045;-59
2022/09/25 01:01:46;;;;;;;7.85;2.90;;;8.50;99.90;;;;;;5072204;28;20048;-59
2022/09/25 01:04:13;;;;;;;11.32;2.97;;;8.70;99.90;;;;;;5072940;28;20048;-59
2022/09/25 01:06:40;;;;;;;9.45;2.90;;;8.60;99.90;;;;;;5071619;28;20123;-59
2022/09/25 01:09:06;;;;;;;14.25;3.22;;;8.60;99.90;;;;;;5072860;28;20033;-59
2022/09/25 01:11:33;;;;;;;8.90;3.92;;;8.40;99.90;;;;;;5072928;28;20434;-59
2022/09/25 01:14:01;;;;;;;8.05;2.95;;;8.50;99.90;;;;;;5072796;28;20037;-59
2022/09/25 01:16:49;;;;;;;12.82;3.50;;;8.40;99.90;;;;;;5072936;28;20059;-59
2022/09/25 01:19:31;;;;;;;12.63;3.30;;;8.40;99.90;;;;;;5072903;28;20487;-59
2022/09/25 01:22:14;;;;;;;7.43;3.22;;;8.60;99.90;;;;;;5073298;28;20120;-59
2022/09/25 01:24:43;;;;;;;13.50;3.60;;;8.40;99.90;;;;;;5076697;28;20088;-59
2022/09/25 01:27:30;;;;;;;9.13;3.25;;;9.00;99.90;;;;;;5076914;28;20052;-58
2022/09/25 01:30:04;;;;;;;10.40;3.25;;;8.50;99.90;;;;;;5076744;28;20036;-59
2022/09/25 01:32:50;;;;;;;10.73;3.40;;;9.30;99.90;;;;;;5077158;28;20047;-59
2022/09/25 01:35:21;;;;;;;17.15;3.72;;;6.60;99.90;;;;;;5076627;28;20124;-59
2022/09/25 01:38:14;;;;;;;6.32;3.30;;;8.30;99.90;;;;;;5076461;28;20045;-59
2022/09/25 01:41:06;;;;;;;15.25;3.80;;;8.30;99.90;;;;;;5076373;28;20492;-59
2022/09/25 01:43:58;;;;;;;9.77;3.60;;;8.30;99.90;;;;;;5076602;28;20048;-59
2022/09/25 01:46:29;;;;;;;13.77;3.70;;;8.70;99.90;;;;;;5060255;28;20060;-58
2022/09/25 01:49:03;;;;;;;8.20;3.40;;;8.10;99.90;;;;;;5076501;28;20036;-59
2022/09/25 01:51:38;;;;;;;13.30;4.05;;;8.20;99.90;;;;;;5076238;28;20036;-59
2022/09/25 01:54:11;;;;;;;10.13;3.77;;;7.50;99.90;;;;;;5076500;28;20040;-58
2022/09/25 01:56:54;;;;;;;10.65;3.67;;;8.20;99.90;;;;;;5076086;28;20029;-58
2022/09/25 01:59:48;;;;;;;12.00;4.07;;;8.40;99.90;;;;;;5076155;28;20036;-59
2022/09/25 02:02:21;;;;;;;12.43;3.78;;;8.20;99.90;;;;;;5067951;28;20048;-58
2022/09/25 02:04:59;;;;;;;10.35;4.00;;;8.20;99.90;;;;;;5076137;28;20040;-58
2022/09/25 02:07:35;;;;;;;7.32;3.63;;;8.20;99.90;;;;;;5076086;28;20465;-59
2022/09/25 02:10:07;;;;;;;;;;;8.20;99.90;;;;;;5076569;28;20040;-59
2022/09/25 02:12:39;;;;;;;8.82;3.83;;;7.20;99.90;;;;;;5076086;28;20274;-59
2022/09/25 02:15:16;;;;;;;10.38;4.00;;;8.70;99.90;;;;;;5074847;28;20373;-58
2022/09/25 02:20:41;;;;;;;11.18;4.20;;;8.60;99.90;;;;;;5075712;28;20048;-59
2022/09/25 02:23:22;;;;;;;11.50;3.80;;;7.20;99.90;;;;;;5075868;28;20367;-59
2022/09/25 02:25:58;;;;;;;9.93;3.97;;;8.00;99.90;;;;;;5075728;28;20037;-59
2022/09/25 02:28:24;;;;;;;13.07;4.18;;;;;;;;;;5075799;28;20400;-59
2022/09/25 02:30:53;;;;;;;10.77;3.58;;;8.00;99.90;;;;;;5074355;28;20044;-59
2022/09/25 02:33:28;;;;;;;12.73;4.00;;;;;;;;;;5075450;28;20044;-59
2022/09/25 02:35:57;;;;;;;9.35;4.07;;;7.90;99.90;;;;;;5075430;28;20059;-58
2022/09/25 02:38:23;;;;;;;8.43;3.60;;;7.90;99.90;;;;;;5075522;28;20410;-59
2022/09/25 02:41:38;;;;;;;11.40;3.33;;;7.90;99.90;;;;;;5075336;28;20045;-58
2022/09/25 02:44:19;;;;;;;9.48;3.60;;;7.90;99.90;;;;;;5073109;28;20044;-58
2022/09/25 02:47:13;;;;;;;7.95;3.35;;;7.40;99.90;;;;;;5075297;28;20063;-58
2022/09/25 02:50:13;;;;;;;14.88;3.67;;;7.40;99.90;;;;;;5075204;28;20039;-58
2022/09/25 02:52:44;;;;;;;8.68;3.45;;;7.00;99.90;;;;;;5075268;28;20468;-59
2022/09/25 02:55:36;;;;;;;12.20;3.88;;;7.60;99.90;;;;;;5075171;28;20051;-58
2022/09/25 02:58:27;;;;;;;8.25;3.25;;;8.40;99.90;;;;;;5075099;28;20119;-58
2022/09/25 03:00:59;;;;;;;13.32;3.90;;;7.30;99.90;;;;;;5075195;28;20040;-58
2022/09/25 03:03:26;;;;;;;11.70;3.80;;;6.70;99.90;;;;;;5075091;28;20036;-59
2022/09/25 03:05:57;;;;;;;11.32;4.13;;;7.40;99.90;;;;;;5074779;28;20048;-59
2022/09/25 03:08:37;;;;;;;9.73;4.07;;;5.80;99.90;;;;;;5075185;28;20028;-58
2022/09/25 03:11:11;;;;;;;11.70;4.00;;;7.70;99.90;;;;;;5075126;28;20109;-58
2022/09/25 03:13:40;;;;;;;12.13;4.22;;;7.30;99.90;;;;;;5074950;28;20053;-58
2022/09/25 03:16:24;;;;;;;17.30;4.45;;;7.60;99.90;;;;;;5074469;28;20439;-58
2022/09/25 03:18:50;;;;;;;12.00;3.70;;;6.90;99.90;;;;;;5074715;28;20044;-58
2022/09/25 03:21:16;;;;;;;16.40;4.15;;;7.60;99.90;;;;;;5073478;28;20124;-59
2022/09/25 03:23:42;;;;;;;9.85;4.18;;;7.50;99.90;;;;;;5074484;28;20115;-59
2022/09/25 03:26:10;;;;;;;11.07;3.70;;;7.10;99.90;;;;;;5074568;28;20094;-58
2022/09/25 03:28:38;;;;;;;7.90;3.42;;;6.80;99.90;;;;;;5074692;28;20029;-59
2022/09/25 03:31:09;;;;;;;8.60;3.00;;;7.40;99.90;;;;;;5073198;28;20047;-58
2022/09/25 03:33:40;;;;;;;5.00;2.53;;;7.30;99.90;;;;;;5074201;28;20033;-58
2022/09/25 03:36:12;;;;;;;6.70;2.70;;;7.40;99.90;;;;;;5074377;28;20040;-58
2022/09/25 03:38:40;;;;;;;4.22;2.67;;;7.30;99.90;;;;;;5074313;28;20107;-58
2022/09/25 03:41:07;;;;;;;9.20;2.40;;;7.40;99.90;;;;;;5072918;28;20044;-58
2022/09/25 03:43:36;;;;;;;6.50;2.70;;;7.10;99.90;;;;;;5074248;28;20041;-58
2022/09/25 03:46:09;;;;;;;3.45;2.60;;;7.10;99.90;;;;;;5073370;28;20044;-58
2022/09/25 03:48:37;;;;;;;6.03;2.33;;;7.20;99.90;;;;;;5074252;28;20568;-58
2022/09/25 03:51:05;;;;;;;3.95;2.65;;;7.30;99.90;;;;;;5073929;28;20040;-58
2022/09/25 03:53:32;;;;;;;11.15;3.53;;;;;;;;;;5074025;28;20048;-58
2022/09/25 03:55:59;;;;;;;6.63;3.10;;;7.00;99.90;;;;;;5072914;28;20056;-58
2022/09/25 03:58:31;;;;;;;6.82;3.30;;;7.10;99.90;;;;;;5073846;28;20036;-59
2022/09/25 04:00:57;;;;;;;7.28;3.30;;;7.00;99.90;;;;;;5072714;28;20056;-58
2022/09/25 04:03:29;;;;;;;11.25;3.80;;;7.00;99.90;;;;;;5073963;28;20169;-58
2022/09/25 04:06:03;;;;;;;9.88;3.85;;;6.40;99.90;;;;;;5072677;28;20047;-58
2022/09/25 04:08:30;;;;;;;12.15;3.90;;;6.90;99.90;;;;;;5073750;28;20047;-58
2022/09/25 04:11:05;;;;;;;;;;;6.90;99.90;;;;;;5074040;28;20105;-59
2022/09/25 04:13:35;;;;;;;13.07;4.07;;;7.10;99.90;;;;;;5073440;28;19916;-58
2022/09/25 04:16:02;;;;;;;12.65;4.50;;;7.00;99.90;;;;;;5073628;28;20054;-58
2022/09/25 04:18:30;;;;;;;15.90;4.97;;;7.20;99.90;;;;;;5073659;28;20041;-58
2022/09/25 04:21:03;;;;;;;15.10;4.63;;;6.90;99.90;;;;;;5072627;28;20083;-58
2022/09/25 04:23:29;;;;;;;10.10;4.03;;;7.00;99.90;;;;;;5072205;28;20045;-58
2022/09/25 04:25:58;;;;;;;13.32;4.68;;;7.00;99.90;;;;;;5073425;28;20056;-58
2022/09/25 04:28:31;;;;;;;14.52;4.78;;;7.60;99.90;;;;;;5072340;28;20080;-58
2022/09/25 04:31:02;;;;;;;;;;;7.10;99.90;;;;;;5073913;28;20054;-58
2022/09/25 04:33:47;;;;;;;18.98;5.20;;;7.10;99.90;;;;;;5055418;28;19923;-58
2022/09/25 04:36:17;;;;;;;14.35;4.95;;;6.30;99.90;;;;;;5072349;28;20043;-58
2022/09/25 04:38:45;;;;;;;15.63;5.70;;;7.30;99.90;;;;;;5073169;28;20036;-58
2022/09/25 04:41:15;;;;;;;13.77;5.68;;;7.30;99.90;;;;;;5073387;28;20439;-58
2022/09/25 04:43:42;;;;;;;13.57;5.30;;;7.40;99.90;;;;;;5073501;28;20041;-58
2022/09/25 04:46:10;;;;;;;12.43;5.05;;;7.40;99.90;;;;;;5073492;28;20062;-58
2022/09/25 04:48:39;;;;;;;18.42;5.38;;;7.60;99.90;;;;;;5073034;28;20032;-58
2022/09/25 04:51:06;;;;;;;10.98;4.88;;;;;;;;;;5073369;28;20048;-58
2022/09/25 04:53:35;;;;;;;23.48;5.40;;;7.30;99.90;;;;;;5073113;28;20098;-58
2022/09/25 04:56:04;;;;;;;14.10;5.07;;;7.30;99.90;;;;;;5054373;28;20101;-58
2022/09/25 04:58:30;;;;;;;15.85;5.00;;;7.40;99.90;;;;;;5073355;28;20056;-58
2022/09/25 05:01:03;;;;;;;9.32;5.00;;;7.30;99.90;;;;;;5073272;28;20044;-58
2022/09/25 05:03:35;;;;;;;15.30;4.50;;;7.20;99.90;;;;;;5073239;28;20288;-58
2022/09/25 05:06:04;;;;;;;11.10;4.68;;;7.40;99.90;;;;;;5073059;28;20036;-58
2022/09/25 05:08:31;;;;;;;13.00;4.43;;;7.50;99.90;;;;;;5073024;28;20045;-58
2022/09/25 05:10:58;;;;;;;9.70;4.38;;;7.10;99.90;;;;;;5073220;28;20119;-58
2022/09/25 05:13:27;;;;;;;11.80;4.30;;;6.30;99.90;;;;;;5072937;28;20043;-59
2022/09/25 05:15:53;;;;;;;14.25;4.38;;;7.50;99.90;;;;;;5073130;28;20111;-59
2022/09/25 05:18:21;;;;;;;16.25;4.38;;;7.20;99.90;;;;;;5072904;28;20105;-58
2022/09/25 05:20:49;;;;;;;12.80;4.45;;;7.80;99.90;;;;;;5072883;28;20059;-58
2022/09/25 05:23:15;;;;;;;14.13;4.40;;;7.30;99.90;;;;;;5073260;28;20045;-58
2022/09/25 05:25:42;;;;;;;10.80;4.68;;;7.40;99.90;;;;;;5072963;28;20530;-58
2022/09/25 05:28:10;;;;;;;9.38;3.90;;;6.20;99.90;;;;;;5072833;28;20032;-58
2022/09/25 05:30:37;;;;;;;12.48;4.05;;;7.20;99.90;;;;;;5072943;28;20132;-58
2022/09/25 05:33:05;;;;;;;9.15;4.20;;;6.70;99.90;;;;;;5072892;28;20055;-58
2022/09/25 05:35:32;;;;;;;5.15;3.15;;;7.20;99.90;;;;;;5071453;28;20071;-59
2022/09/25 05:37:59;;;;;;;6.22;4.00;;;;;;;;;;5071672;28;20037;-59
2022/09/25 05:40:27;;;;;;;4.43;2.80;;;7.30;99.90;;;;;;5072638;28;20059;-59
2022/09/25 05:42:54;;;;;;;6.22;2.83;;;;;;;;;;5072461;28;20128;-59
2022/09/25 05:45:23;;;;;;;4.70;2.50;;;6.70;99.90;;;;;;5072451;28;20044;-59
2022/09/25 05:48:00;;;;;;;3.60;2.35;;;7.10;99.90;;;;;;5072217;28;20079;-59
2022/09/25 05:50:26;;;;;;;6.53;2.53;;;;;;;;;;5072815;28;20040;-58
2022/09/25 05:52:59;;;;;;;5.00;2.50;;;7.10;99.90;;;;;;5072374;28;20058;-58
2022/09/25 05:55:26;;;;;;;5.88;2.70;;;6.90;99.90;;;;;;5072265;28;20061;-58
2022/09/25 05:57:52;;;;;;;5.25;3.13;;;7.80;99.90;;;;;;5072303;28;20048;-58
2022/09/25 06:00:19;;;;;;;5.40;2.92;;;7.40;99.90;;;;;;5072445;28;20064;-59
2022/09/25 06:02:45;;;;;;;5.03;2.55;;;;;;;;;;5072523;28;20040;-59
2022/09/25 06:05:11;;;;;;;6.32;3.05;;;7.60;99.90;;;;;;5072316;28;20127;-59
2022/09/25 06:07:38;;;;;;;5.35;3.10;;;8.10;99.90;;;;;;5072169;28;20524;-59
2022/09/25 06:10:05;;;;;;;5.63;3.22;;;8.20;99.90;;;;;;5074919;28;20174;-59
2022/09/25 06:12:36;;;;;;;10.30;3.30;;;9.80;99.90;;;;;;5074863;28;20090;-60
2022/09/25 06:15:03;;;;;;;6.75;3.13;;;;;;;;;;5074615;28;20137;-60
2022/09/25 06:17:32;;;;;;;8.52;2.97;;;10.40;99.90;;;;;;5075647;28;20106;-59
2022/09/25 06:20:08;;;;;;;8.88;3.00;;;11.50;99.90;;;;;;5075748;28;20118;-60
2022/09/25 06:22:37;;;;;;;10.13;3.10;;;12.50;99.90;;;;;;5075838;28;20040;-60
2022/09/25 06:25:05;;;;;;;7.82;2.85;;;12.80;99.90;;;;;;5075597;28;20074;-59
2022/09/25 06:27:32;;;;;;;12.43;2.67;;;13.50;99.90;;;;;;5074589;28;20072;-59
2022/09/25 06:30:01;;;;;;;8.45;2.90;;;14.20;99.90;;;;;;5075995;28;20044;-59
2022/09/25 06:32:27;;;;;;;6.82;2.60;;;14.40;99.90;;;;;;5075362;28;20140;-60
2022/09/25 06:34:53;;;;;;;8.88;2.80;;;;;;;;;;5075332;28;20036;-59
2022/09/25 06:37:27;;;;;;;7.30;2.90;;;13.70;99.90;;;;;;5075629;28;20040;-59
2022/09/25 06:39:52;;;;;;;6.90;2.65;;;13.30;99.90;;;;;;5075688;28;20032;-59
2022/09/25 06:42:18;;;;;;;9.82;2.83;;;12.40;99.90;;;;;;5075298;28;20047;-59
2022/09/25 06:44:45;;;;;;;13.60;3.00;;;12.20;99.90;;;;;;5075648;28;20048;-59
2022/09/25 06:47:12;;;;;;;12.05;3.08;;;12.30;99.90;;;;;;5075200;28;20133;-59
2022/09/25 06:49:40;;;;;;;6.57;2.78;;;11.70;99.90;;;;;;5063869;28;20059;-59
2022/09/25 06:52:09;;;;;;;13.30;3.38;;;11.50;99.90;;;;;;5069781;28;20049;-59
2022/09/25 06:54:40;;;;;;;7.57;2.90;;;;;;;;;;5072501;28;20044;-58
2022/09/25 06:57:08;;;;;;;10.88;3.03;;;10.60;99.90;;;;;;5073506;28;20053;-59
2022/09/25 06:59:34;;;;;;;12.13;2.97;;;11.10;99.90;;;;;;5072571;28;20083;-59
2022/09/25 07:03:43;;;;;;;7.90;2.70;;;10.90;99.90;;;;;;5074302;28;20044;-59
2022/09/25 07:04:50;;;;;;;11.80;3.15;;;11.90;99.90;;;;;;5073711;28;20078;-59
2022/09/25 07:07:19;;;;;;;11.70;3.00;;;10.80;99.90;;;;;;5073594;28;20040;-58
2022/09/25 07:09:47;;;;;;;7.38;2.95;;;;;;;;;;5072669;28;20072;-59
2022/09/25 07:12:14;;;;;;;10.80;2.90;;;10.70;99.90;;;;;;5073680;28;20037;-59
2022/09/25 07:14:41;;;;;;;12.20;2.85;;;;;;;;;;5073789;28;20071;-59
2022/09/25 07:17:07;;;;;;;14.63;3.13;;;;;;;;;;5071928;28;20059;-59
2022/09/25 07:19:33;;;;;;;5.85;2.70;;;10.80;99.90;;;;;;5072901;28;20064;-59
2022/09/25 07:21:59;;;;;;;8.68;2.90;;;10.80;99.90;;;;;;5071950;28;20129;-58
2022/09/25 07:24:29;;;;;;;10.95;2.75;;;10.70;99.90;;;;;;5073572;28;20040;-59
2022/09/25 07:26:55;;;;;;;9.05;2.80;;;10.60;99.90;;;;;;5072945;28;20044;-59
2022/09/25 07:29:25;;;;;;;7.80;2.85;;;;;;;;;;5073248;28;20055;-59
2022/09/25 07:31:50;;;;;;;8.65;3.08;;;11.00;99.90;;;;;;5073192;28;20049;-58
2022/09/25 07:34:16;;;;;;;8.57;3.15;;;10.40;99.90;;;;;;5073359;28;20043;-58
2022/09/25 07:36:42;;;;;;;13.85;3.00;;;11.10;99.90;;;;;;5058819;28;20493;-59
2022/09/25 07:39:08;;;;;;;12.10;2.92;;;11.00;99.90;;;;;;5053281;28;20049;-58
2022/09/25 07:41:37;;;;;;;8.75;3.03;;;10.80;99.90;;;;;;5052936;28;20051;-58
2022/09/25 07:44:04;;;;;;;6.35;2.80;;;;;;;;;;5051939;28;20435;-59
2022/09/25 07:46:30;;;;;;;7.93;2.75;;;11.10;99.90;;;;;;5053684;28;20053;-58
2022/09/25 07:48:56;;;;;;;8.93;3.20;;;12.00;99.90;;;;;;5053640;28;20495;-59
2022/09/25 07:51:22;;;;;;;10.48;2.90;;;11.20;99.90;;;;;;5052927;28;20040;-58
2022/09/25 07:53:51;;;;;;;9.18;3.05;;;11.40;99.90;;;;;;5053179;28;20044;-58
2022/09/25 07:56:17;;;;;;;10.38;3.10;;;11.70;99.90;;;;;;5052531;28;20123;-59
2022/09/25 07:58:47;;;;;;;10.75;2.70;;;11.80;99.90;;;;;;5053346;28;20063;-58
2022/09/25 08:01:12;;;;;;;7.35;2.72;;;11.60;99.90;;;;;;5051661;28;20045;-58
2022/09/25 08:03:40;;;;;;;10.77;2.85;;;11.70;99.90;;;;;;5052842;28;20053;-59
2022/09/25 08:06:10;;;;;;;7.35;2.40;;;11.80;99.90;;;;;;5052508;28;20086;-58
2022/09/25 08:08:37;;;;;;;13.57;2.38;;;11.10;99.90;;;;;;5052065;28;20063;-58
2022/09/25 08:11:12;;;;;;;12.18;2.63;;;12.00;99.90;;;;;;5052723;28;20515;-59
2022/09/25 08:13:41;;;;;;;6.93;2.30;;;13.30;99.90;;;;;;5052516;28;20052;-58
2022/09/25 08:16:15;;;;;;;8.30;2.58;;;14.30;99.90;;;;;;5052162;28;20057;-58
2022/09/25 08:18:46;;;;;;;8.88;2.10;;;15.70;99.90;;;;;;5052863;28;20049;-59
2022/09/25 08:21:14;;;;;;;9.00;2.00;;;16.70;99.90;;;;;;5051026;28;20509;-58
2022/09/25 08:23:40;;;;;;;11.50;2.20;;;17.20;99.90;;;;;;5052435;28;20048;-59
2022/09/25 08:26:07;;;;;;;5.20;1.70;;;;;;;;;;5052527;28;20044;-58
2022/09/25 08:28:36;;;;;;;9.65;2.50;;;17.70;99.90;;;;;;5052340;28;20049;-59
2022/09/25 08:31:02;;;;;;;10.10;2.10;;;18.40;99.90;;;;;;5056413;28;20119;-58
2022/09/25 08:33:33;;;;;;;9.20;1.75;;;18.60;99.90;;;;;;5073380;28;20040;-59
2022/09/25 08:36:01;;;;;;;7.30;1.85;;;18.40;99.90;;;;;;5073250;28;20080;-60
2022/09/25 08:38:33;;;;;;;10.35;1.88;;;18.50;99.90;;;;;;5073543;28;20048;-60
2022/09/25 08:41:08;;;;;;;8.07;1.85;;;18.40;99.90;;;;;;5073419;28;20082;-59
2022/09/25 08:43:44;;;;;;;5.05;1.65;;;18.80;99.90;;;;;;5073716;28;20028;-60
2022/09/25 08:49:25;;;;;;;9.50;1.90;;;18.90;99.90;;;;;;5073493;28;20079;-60
2022/09/25 08:51:53;;;;;;;11.27;1.65;;;19.50;99.90;;;;;;5073228;28;20400;-60
2022/09/25 08:54:28;;;;;;;7.75;1.90;;;19.30;99.90;;;;;;5072969;28;20117;-60
2022/09/25 08:57:12;;;;;;;8.37;2.13;;;19.20;99.90;;;;;;5072984;28;20059;-60
2022/09/25 08:59:42;;;;;;;8.70;1.67;;;19.00;99.90;;;;;;5072328;28;20055;-60
2022/09/25 09:02:19;;;;;;;4.95;1.63;;;19.40;99.90;;;;;;5071807;28;20037;-60
2022/09/25 09:05:00;;;;;;;12.30;1.80;;;19.40;99.90;;;;;;5073319;28;20442;-60
2022/09/25 09:07:44;;;;;;;11.38;1.85;;;19.60;99.90;;;;;;5073275;28;20045;-60
2022/09/25 09:10:34;;;;;;;7.93;1.90;;;19.60;99.90;;;;;;5073256;28;20047;-60
2022/09/25 09:13:23;;;;;;;5.40;1.60;;;19.70;99.90;;;;;;5069508;28;20053;-61
2022/09/25 09:16:06;;;;;;;6.57;1.60;;;19.80;99.90;;;;;;5072817;28;20101;-61
2022/09/25 09:18:37;;;;;;;10.82;1.92;;;19.70;99.90;;;;;;5072988;28;20059;-61
2022/09/25 09:21:41;;;;;;;8.50;1.67;;;19.60;99.90;;;;;;5072811;28;20587;-59
2022/09/25 09:24:14;;;;;;;7.35;1.42;;;19.30;99.90;;;;;;5072450;28;20128;-59
2022/09/25 09:26:58;;;;;;;10.35;1.70;;;19.30;99.90;;;;;;5072692;28;20480;-59
2022/09/25 09:29:27;;;;;;;9.40;1.88;;;19.00;99.90;;;;;;5037612;28;20049;-59
2022/09/25 09:32:24;;;;;;;6.13;1.63;;;19.00;99.90;;;;;;5072460;28;20032;-59
2022/09/25 09:35:14;;;;;;;7.30;1.80;;;18.00;99.90;;;;;;5072856;28;20469;-59
2022/09/25 09:38:09;;;;;;;9.20;1.70;;;17.70;99.90;;;;;;5072233;28;20044;-59
2022/09/25 09:41:08;;;;;;;8.25;1.55;;;17.90;99.90;;;;;;5072958;28;20043;-59
2022/09/25 09:44:11;;;;;;;8.88;2.08;;;18.30;99.90;;;;;;5074151;28;20488;-59
2022/09/25 09:46:52;;;;;;;11.50;3.22;;;18.10;99.90;;;;;;5076532;28;20095;-59
2022/09/25 09:49:24;;;;;;;7.70;2.00;;;17.80;99.90;;;;;;5076371;28;20048;-59
2022/09/25 09:51:52;;;;;;;7.65;1.58;;;18.40;99.90;;;;;;5076298;28;20037;-59
2022/09/25 09:54:41;;;;;;;6.68;1.50;;;17.70;99.90;;;;;;5076226;28;20037;-59
2022/09/25 09:57:24;;;;;;;6.13;1.33;;;17.80;99.90;;;;;;5076207;28;20048;-59
2022/09/25 10:00:04;;;;;;;6.72;1.70;;;17.70;99.90;;;;;;5076442;28;20048;-59
2022/09/25 10:02:44;;;;;;;4.88;1.45;;;17.70;99.90;;;;;;5076406;28;20508;-59
2022/09/25 10:05:25;;;;;;;7.88;1.60;;;17.70;99.90;;;;;;5074792;28;20051;-59
2022/09/25 10:07:51;;;;;;;7.70;1.50;;;17.50;99.90;;;;;;5075590;28;20087;-59
2022/09/25 10:10:18;;;;;;;6.40;1.70;;;17.40;99.90;;;;;;5075068;28;20044;-59
2022/09/25 10:12:49;;;;;;;6.00;1.67;;;17.40;99.90;;;;;;5075959;28;20044;-59
2022/09/25 10:15:39;;;;;;;9.43;1.52;;;16.80;99.90;;;;;;5075714;28;20506;-59
2022/09/25 10:18:05;;;;;;;6.05;1.40;;;17.30;99.90;;;;;;5074331;28;20159;-59
2022/09/25 10:21:11;;;;;;;8.30;1.50;;;17.60;99.90;;;;;;5075536;28;20040;-60
2022/09/25 10:23:46;;;;;;;5.05;1.50;;;17.90;99.90;;;;;;5036852;28;20508;-59
2022/09/25 10:26:43;;;;;;;7.35;1.40;;;17.90;99.90;;;;;;5053309;28;20064;-59
2022/09/25 10:29:18;;;;;;;7.43;1.50;;;18.20;99.90;;;;;;4994288;28;20050;-60
2022/09/25 10:31:44;;;;;;;9.88;1.80;;;17.80;99.90;;;;;;4994293;28;20050;-60
2022/09/25 10:34:16;;;;;;;7.63;1.83;;;17.90;99.90;;;;;;4994142;28;20111;-59
2022/09/25 10:36:45;;;;;;;10.82;1.55;;;17.50;99.90;;;;;;4977540;28;20054;-59
2022/09/25 10:39:33;;;;;;;8.48;1.50;;;17.70;99.90;;;;;;4993121;28;20061;-59
2022/09/25 10:42:01;;;;;;;5.80;1.55;;;17.90;99.90;;;;;;4994120;28;20434;-59
2022/09/25 10:44:35;;;;;;;3.95;1.45;;;18.10;99.90;;;;;;4994000;28;20526;-59
2022/09/25 10:50:21;;;;;;;6.35;1.45;;;18.20;99.90;;;;;;4993900;28;20065;-59
2022/09/25 10:52:57;;;;;;;8.07;1.42;;;17.10;99.90;;;;;;4993782;28;20584;-59
2022/09/25 10:55:29;;;;;;;5.53;1.50;;;17.10;99.90;;;;;;4993343;28;20050;-59
2022/09/25 10:58:09;;;;;;;3.58;1.00;;;16.50;99.90;;;;;;4981136;28;20055;-59
2022/09/25 11:00:53;;;;;;;6.32;1.17;;;16.10;99.90;;;;;;5030213;28;20049;-59
2022/09/25 11:03:25;;;;;;;3.47;0.90;;;16.20;99.90;;;;;;5031482;28;20137;-59
2022/09/25 11:05:58;;;;;;;3.65;1.50;;;16.10;99.90;;;;;;5070308;28;20127;-59
2022/09/25 11:08:29;;;;;;;3.03;0.90;;;15.80;99.90;;;;;;5062554;28;20067;-59
2022/09/25 11:11:01;;;;;;;2.53;1.08;;;16.10;99.90;;;;;;5073788;28;20103;-59
2022/09/25 11:13:48;;;;;;;1.55;0.80;;;15.90;99.90;;;;;;5073632;28;20103;-59
2022/09/25 11:16:15;;;;;;;5.93;0.85;;;15.80;99.90;;;;;;5053489;28;20078;-60
2022/09/25 11:18:48;;;;;;;2.53;0.70;;;16.00;99.90;;;;;;5053907;28;20041;-60
2022/09/25 11:21:39;;;;;;;1.73;0.85;;;15.70;99.90;;;;;;5053676;28;20037;-60
2022/09/25 11:24:17;;;;;;;2.25;0.80;;;15.70;99.90;;;;;;5053174;28;20053;-60
2022/09/25 11:27:00;;;;;;;2.20;1.10;;;16.10;99.90;;;;;;5054013;28;20052;-60
2022/09/25 11:29:41;;;;;;;2.20;0.80;;;16.20;99.90;;;;;;5053704;28;20297;-59
2022/09/25 11:32:12;;;;;;;2.42;0.90;;;16.20;99.90;;;;;;5056772;28;20043;-59
2022/09/25 11:34:45;;;;;;;2.35;0.98;;;16.40;99.90;;;;;;5072738;28;20048;-59
2022/09/25 11:37:42;;;;;;;2.85;0.98;;;16.70;99.90;;;;;;5073528;28;20197;-59
2022/09/25 11:43:31;;;;;;;3.63;0.98;;;16.70;99.90;;;;;;5072289;28;20052;-60
2022/09/25 11:46:12;;;;;;;4.55;1.40;;;17.00;99.90;;;;;;5072863;28;20040;-60
2022/09/25 11:49:07;;;;;;;3.78;1.13;;;20.20;99.90;;;;;;5072794;28;20148;-59
2022/09/25 11:51:51;;;;;;;4.03;1.27;;;16.70;99.90;;;;;;5073025;28;20033;-60
2022/09/25 11:54:28;;;;;;;3.90;1.13;;;17.20;99.90;;;;;;5072560;28;20079;-59
2022/09/25 11:57:26;;;;;;;7.85;1.55;;;17.10;99.90;;;;;;5074483;28;20128;-60
2022/09/25 12:00:23;;;;;;;5.00;1.10;;;17.20;99.90;;;;;;5073788;28;20048;-60
2022/09/25 12:03:05;;;;;;;7.93;1.38;;;17.50;99.90;;;;;;5072981;28;20059;-59
2022/09/25 12:06:02;;;;;;;4.93;1.30;;;17.80;99.90;;;;;;5073039;28;20049;-59
2022/09/25 12:08:56;;;;;;;4.13;1.17;;;19.00;99.90;;;;;;5073406;28;20040;-60
2022/09/25 12:11:45;;;;;;;6.18;1.40;;;18.30;99.90;;;;;;5072216;28;20121;-59
2022/09/25 12:14:26;;;;;;;7.95;1.27;;;19.30;99.90;;;;;;5073249;28;20082;-58
2022/09/25 12:16:59;;;;;;;4.80;1.40;;;18.70;99.90;;;;;;5071519;28;20060;-58
2022/09/25 12:19:51;;;;;;;4.15;1.10;;;19.50;99.90;;;;;;5073378;28;20036;-58
2022/09/25 12:22:38;;;;;;;1.83;1.00;;;19.00;99.90;;;;;;5073383;28;20542;-58
2022/09/25 12:25:39;;;;;;;3.08;1.08;;;19.20;99.90;;;;;;5073343;28;20029;-59
2022/09/25 12:28:15;;;;;;;2.83;0.90;;;18.30;99.90;;;;;;5073608;28;20040;-59
2022/09/25 12:30:59;;;;;;;3.60;0.93;;;18.50;99.90;;;;;;5076143;28;20032;-60
2022/09/25 12:33:40;;;;;;;3.88;0.95;;;19.10;99.50;;;;;;5073570;28;20109;-60
2022/09/25 12:36:19;;;;;;;2.47;0.90;;;19.10;99.40;;;;;;5073583;28;20041;-60
2022/09/25 12:39:07;;;;;;;4.30;1.02;;;19.10;99.90;;;;;;5073618;28;20041;-60
2022/09/25 12:41:46;;;;;;;2.30;1.20;;;19.30;99.20;;;;;;5073284;28;20068;-60
2022/09/25 12:44:16;;;;;;;5.85;1.20;;;19.50;98.60;;;;;;5073316;28;20047;-61
2022/09/25 12:46:49;;;;;;;3.53;1.00;;;19.60;98.80;;;;;;5073225;28;20062;-62
2022/09/25 12:49:35;;;;;;;3.03;1.00;;;19.70;99.90;;;;;;5073301;28;20093;-60
2022/09/25 12:52:09;;;;;;;5.97;1.13;;;19.90;99.90;;;;;;5073022;28;20044;-60
2022/09/25 12:54:46;;;;;;;4.25;1.38;;;20.10;99.90;;;;;;5073116;28;20029;-60
2022/09/25 12:57:28;;;;;;;6.15;1.40;;;19.60;99.90;;;;;;5073392;28;20044;-60
2022/09/25 13:00:01;;;;;;;3.97;1.52;;;19.50;99.90;;;;;;5073002;28;20119;-60
2022/09/25 13:02:51;;;;;;;3.75;1.17;;;19.20;99.30;;;;;;5073022;28;20033;-60
2022/09/25 13:05:39;;;;;;;3.33;1.10;;;19.00;99.90;;;;;;5072009;28;20047;-60
2022/09/25 13:08:26;;;;;;;4.10;1.30;;;18.70;99.90;;;;;;5073055;28;20127;-60
2022/09/25 13:11:04;;;;;;;5.38;1.33;;;18.40;99.90;;;;;;5072895;28;20090;-60
2022/09/25 13:13:38;;;;;;;5.05;1.48;;;18.70;99.90;;;;;;5073108;28;20029;-60
2022/09/25 13:16:08;;;;;;;2.88;1.10;;;18.70;99.90;;;;;;5073225;28;20044;-60
2022/09/25 13:18:34;;;;;;;5.68;1.20;;;19.20;99.90;;;;;;5075762;28;20052;-60
2022/09/25 13:21:24;;;;;;;5.63;1.42;;;18.40;99.90;;;;;;5075747;28;20052;-60
2022/09/25 13:23:55;;;;;;;5.75;1.40;;;18.60;99.90;;;;;;5075583;28;20059;-60
2022/09/25 13:26:29;;;;;;;4.60;1.38;;;18.00;99.90;;;;;;5076777;28;20037;-60
2022/09/25 13:29:26;;;;;;;4.10;1.48;;;18.40;99.90;;;;;;5075250;28;20055;-60
2022/09/25 13:32:06;;;;;;;7.70;1.67;;;18.20;99.90;;;;;;5077102;28;20040;-60
2022/09/25 13:34:39;;;;;;;4.40;1.40;;;19.40;99.90;;;;;;5077014;28;20040;-60
2022/09/25 13:37:09;;;;;;;5.65;1.30;;;18.10;99.90;;;;;;5075855;28;20087;-61
2022/09/25 13:42:46;;;;;;;4.13;1.50;;;18.70;99.90;;;;;;5076889;28;20105;-60
2022/09/25 13:45:34;;;;;;;4.70;1.40;;;18.00;99.90;;;;;;5074912;28;20044;-60
2022/09/25 13:48:34;;;;;;;7.80;1.33;;;18.20;99.90;;;;;;5075152;28;20053;-60